sensor_id;sensor_type;location;lat;lon;timestamp;pressure;altitude;pressure_sealevel;temperature;humidity
498;BME280;39559;48.630;9.162;2024-02-21T00:01:30;98541.38;;;1.71;100.00
498;BME280;39559;48.630;9.162;2024-02-21T00:03:55;98543.84;;;1.62;100.00
498;BME280;39559;48.630;9.162;2024-02-21T00:06:21;98555.84;;;1.69;100.00
498;BME280;39559;48.630;9.162;2024-02-21T00:08:47;98550.03;;;1.81;100.00
498;BME280;39559;48.630;9.162;2024-02-21T00:11:12;98544.84;;;1.73;100.00
498;BME280;39559;48.630;9.162;2024-02-21T00:13:37;98551.81;;;1.91;100.00
498;BME280;39559;48.630;9.162;2024-02-21T00:18:13;98530.56;;;2.03;100.00
498;BME280;39559;48.630;9.162;2024-02-21T00:20:39;98535.56;;;1.87;100.00
498;BME280;39559;48.630;9.162;2024-02-21T00:23:04;98540.72;;;1.90;100.00
498;BME280;39559;48.630;9.162;2024-02-21T00:25:30;98530.47;;;1.87;100.00
498;BME280;39559;48.630;9.162;2024-02-21T00:27:55;98530.38;;;1.81;100.00
498;BME280;39559;48.630;9.162;2024-02-21T00:30:21;98531.25;;;1.83;100.00
498;BME280;39559;48.630;9.162;2024-02-21T00:32:47;98533.94;;;1.97;100.00
498;BME280;39559;48.630;9.162;2024-02-21T00:35:13;98516.88;;;1.98;100.00
498;BME280;39559;48.630;9.162;2024-02-21T00:37:39;98509.22;;;2.01;100.00
498;BME280;39559;48.630;9.162;2024-02-21T00:42:13;98502.28;;;1.90;100.00
498;BME280;39559;48.630;9.162;2024-02-21T00:44:39;98507.44;;;1.92;100.00
498;BME280;39559;48.630;9.162;2024-02-21T00:47:04;98511.69;;;1.91;100.00
498;BME280;39559;48.630;9.162;2024-02-21T00:49:30;98508.19;;;1.80;100.00
498;BME280;39559;48.630;9.162;2024-02-21T00:51:55;98505.75;;;1.96;100.00
498;BME280;39559;48.630;9.162;2024-02-21T00:54:21;98503.06;;;1.80;100.00
498;BME280;39559;48.630;9.162;2024-02-21T00:56:48;98499.72;;;1.87;100.00
498;BME280;39559;48.630;9.162;2024-02-21T00:59:14;98499.69;;;1.84;100.00
498;BME280;39559;48.630;9.162;2024-02-21T01:01:39;98493.72;;;1.84;100.00
498;BME280;39559;48.630;9.162;2024-02-21T01:06:13;98501.31;;;1.76;100.00
498;BME280;39559;48.630;9.162;2024-02-21T01:08:38;98504.81;;;1.84;100.00
498;BME280;39559;48.630;9.162;2024-02-21T01:11:04;98503.19;;;1.96;100.00
498;BME280;39559;48.630;9.162;2024-02-21T01:13:30;98492.09;;;1.98;100.00
498;BME280;39559;48.630;9.162;2024-02-21T01:15:55;98487.81;;;1.94;100.00
498;BME280;39559;48.630;9.162;2024-02-21T01:18:20;98486.19;;;2.07;100.00
498;BME280;39559;48.630;9.162;2024-02-21T01:20:46;98477.66;;;2.08;100.00
498;BME280;39559;48.630;9.162;2024-02-21T01:23:11;98476.78;;;2.04;100.00
498;BME280;39559;48.630;9.162;2024-02-21T01:25:37;98466.53;;;2.03;100.00
498;BME280;39559;48.630;9.162;2024-02-21T01:30:13;98457.19;;;2.08;100.00
498;BME280;39559;48.630;9.162;2024-02-21T01:32:38;98448.56;;;2.00;100.00
498;BME280;39559;48.630;9.162;2024-02-21T01:35:04;98447.78;;;2.10;100.00
498;BME280;39559;48.630;9.162;2024-02-21T01:37:30;98452.91;;;2.08;100.00
498;BME280;39559;48.630;9.162;2024-02-21T01:39:55;98446.94;;;2.14;100.00
498;BME280;39559;48.630;9.162;2024-02-21T01:42:21;98437.63;;;2.22;100.00
498;BME280;39559;48.630;9.162;2024-02-21T01:44:46;98435.03;;;2.19;100.00
498;BME280;39559;48.630;9.162;2024-02-21T01:47:12;98431.59;;;2.17;100.00
498;BME280;39559;48.630;9.162;2024-02-21T01:49:42;98434.06;;;2.03;100.00
498;BME280;39559;48.630;9.162;2024-02-21T01:54:17;98434.88;;;1.98;100.00
498;BME280;39559;48.630;9.162;2024-02-21T01:56:44;98435.84;;;2.14;100.00
498;BME280;39559;48.630;9.162;2024-02-21T01:59:11;98423.81;;;2.03;100.00
498;BME280;39559;48.630;9.162;2024-02-21T02:01:37;98424.75;;;2.13;100.00
498;BME280;39559;48.630;9.162;2024-02-21T02:04:02;98421.38;;;2.23;100.00
498;BME280;39559;48.630;9.162;2024-02-21T02:06:31;98411.94;;;2.15;100.00
498;BME280;39559;48.630;9.162;2024-02-21T02:08:57;98405.97;;;2.14;100.00
498;BME280;39559;48.630;9.162;2024-02-21T02:11:22;98404.19;;;2.05;100.00
498;BME280;39559;48.630;9.162;2024-02-21T02:13:48;98403.31;;;1.97;100.00
498;BME280;39559;48.630;9.162;2024-02-21T02:18:14;98410.25;;;2.18;100.00
498;BME280;39559;48.630;9.162;2024-02-21T02:20:39;98401.75;;;2.27;100.00
498;BME280;39559;48.630;9.162;2024-02-21T02:23:31;98394.16;;;2.44;100.00
498;BME280;39559;48.630;9.162;2024-02-21T02:25:57;98385.66;;;2.56;100.00
498;BME280;39559;48.630;9.162;2024-02-21T02:28:23;98372.06;;;2.83;100.00
498;BME280;39559;48.630;9.162;2024-02-21T02:30:50;98362.69;;;3.03;100.00
498;BME280;39559;48.630;9.162;2024-02-21T02:33:16;98351.59;;;3.07;100.00
498;BME280;39559;48.630;9.162;2024-02-21T02:35:44;98342.22;;;3.11;100.00
498;BME280;39559;48.630;9.162;2024-02-21T02:38:11;98340.44;;;2.87;100.00
498;BME280;39559;48.630;9.162;2024-02-21T02:42:13;98333.56;;;2.80;100.00
498;BME280;39559;48.630;9.162;2024-02-21T02:44:38;98331.91;;;2.80;100.00
498;BME280;39559;48.630;9.162;2024-02-21T02:47:04;98330.13;;;2.62;100.00
498;BME280;39559;48.630;9.162;2024-02-21T02:49:29;98330.09;;;2.48;100.00
498;BME280;39559;48.630;9.162;2024-02-21T02:51:55;98330.16;;;2.76;100.00
498;BME280;39559;48.630;9.162;2024-02-21T02:54:21;98321.66;;;2.97;100.00
498;BME280;39559;48.630;9.162;2024-02-21T02:56:46;98318.22;;;2.77;100.00
498;BME280;39559;48.630;9.162;2024-02-21T02:59:12;98315.66;;;2.91;100.00
498;BME280;39559;48.630;9.162;2024-02-21T03:01:37;98310.53;;;3.04;100.00
498;BME280;39559;48.630;9.162;2024-02-21T03:06:13;98287.44;;;3.00;100.00
498;BME280;39559;48.630;9.162;2024-02-21T03:08:38;98285.72;;;3.22;100.00
498;BME280;39559;48.630;9.162;2024-02-21T03:11:05;98289.16;;;3.12;100.00
498;BME280;39559;48.630;9.162;2024-02-21T03:13:30;98278.88;;;3.08;100.00
498;BME280;39559;48.630;9.162;2024-02-21T03:15:56;98289.13;;;2.78;100.00
498;BME280;39559;48.630;9.162;2024-02-21T03:18:21;98294.28;;;2.98;100.00
498;BME280;39559;48.630;9.162;2024-02-21T03:20:47;98290.00;;;3.06;100.00
498;BME280;39559;48.630;9.162;2024-02-21T03:23:12;98289.16;;;3.19;100.00
498;BME280;39559;48.630;9.162;2024-02-21T03:25:38;98273.75;;;2.87;100.00
498;BME280;39559;48.630;9.162;2024-02-21T03:30:13;98272.06;;;2.87;100.00
498;BME280;39559;48.630;9.162;2024-02-21T03:32:38;98267.78;;;3.00;100.00
498;BME280;39559;48.630;9.162;2024-02-21T03:35:05;98266.03;;;3.27;100.00
498;BME280;39559;48.630;9.162;2024-02-21T03:37:30;98264.34;;;3.20;100.00
498;BME280;39559;48.630;9.162;2024-02-21T03:39:56;98263.47;;;3.07;100.00
498;BME280;39559;48.630;9.162;2024-02-21T03:42:21;98259.22;;;2.94;100.00
498;BME280;39559;48.630;9.162;2024-02-21T03:44:47;98261.75;;;2.78;100.00
498;BME280;39559;48.630;9.162;2024-02-21T03:47:12;98261.78;;;2.92;100.00
498;BME280;39559;48.630;9.162;2024-02-21T03:49:38;98254.09;;;3.04;100.00
498;BME280;39559;48.630;9.162;2024-02-21T03:54:13;98259.22;;;3.17;100.00
498;BME280;39559;48.630;9.162;2024-02-21T03:56:39;98255.78;;;3.30;100.00
498;BME280;39559;48.630;9.162;2024-02-21T03:59:06;98250.66;;;3.29;100.00
498;BME280;39559;48.630;9.162;2024-02-21T04:01:32;98252.38;;;3.30;100.00
498;BME280;39559;48.630;9.162;2024-02-21T04:03:57;98260.06;;;3.26;100.00
498;BME280;39559;48.630;9.162;2024-02-21T04:06:23;98261.75;;;3.32;100.00
498;BME280;39559;48.630;9.162;2024-02-21T04:08:48;98255.78;;;3.05;100.00
498;BME280;39559;48.630;9.162;2024-02-21T04:11:14;98259.22;;;2.95;100.00
498;BME280;39559;48.630;9.162;2024-02-21T04:13:39;98242.09;;;2.93;100.00
498;BME280;39559;48.630;9.162;2024-02-21T04:18:13;98231.84;;;2.96;100.00
498;BME280;39559;48.630;9.162;2024-02-21T04:20:40;98234.44;;;3.00;100.00
498;BME280;39559;48.630;9.162;2024-02-21T04:23:05;98232.69;;;2.87;100.00
498;BME280;39559;48.630;9.162;2024-02-21T04:25:31;98231.81;;;2.63;100.00
498;BME280;39559;48.630;9.162;2024-02-21T04:27:56;98229.28;;;2.69;100.00
498;BME280;39559;48.630;9.162;2024-02-21T04:30:22;98224.09;;;2.43;100.00
498;BME280;39559;48.630;9.162;2024-02-21T04:32:47;98222.38;;;2.35;100.00
498;BME280;39559;48.630;9.162;2024-02-21T04:35:13;98226.66;;;2.37;100.00
498;BME280;39559;48.630;9.162;2024-02-21T04:37:39;98224.97;;;2.58;100.00
498;BME280;39559;48.630;9.162;2024-02-21T04:42:13;98224.16;;;2.60;100.00
498;BME280;39559;48.630;9.162;2024-02-21T04:44:39;98223.31;;;2.67;100.00
498;BME280;39559;48.630;9.162;2024-02-21T04:47:04;98201.00;;;2.22;100.00
498;BME280;39559;48.630;9.162;2024-02-21T04:49:30;98209.56;;;2.30;100.00
498;BME280;39559;48.630;9.162;2024-02-21T04:51:55;98200.19;;;2.43;100.00
498;BME280;39559;48.630;9.162;2024-02-21T04:54:21;98189.09;;;2.62;100.00
498;BME280;39559;48.630;9.162;2024-02-21T04:56:46;98190.81;;;2.77;100.00
498;BME280;39559;48.630;9.162;2024-02-21T04:59:12;98200.19;;;2.78;100.00
498;BME280;39559;48.630;9.162;2024-02-21T05:01:38;98193.38;;;2.63;100.00
498;BME280;39559;48.630;9.162;2024-02-21T05:06:13;98198.44;;;2.25;100.00
498;BME280;39559;48.630;9.162;2024-02-21T05:08:40;98204.47;;;2.41;100.00
498;BME280;39559;48.630;9.162;2024-02-21T05:11:05;98194.19;;;2.45;100.00
498;BME280;39559;48.630;9.162;2024-02-21T05:13:31;98189.09;;;2.53;100.00
498;BME280;39559;48.630;9.162;2024-02-21T05:15:56;98189.06;;;2.47;100.00
498;BME280;39559;48.630;9.162;2024-02-21T05:18:22;98198.44;;;2.26;100.00
498;BME280;39559;48.630;9.162;2024-02-21T05:20:47;98198.44;;;2.23;100.00
498;BME280;39559;48.630;9.162;2024-02-21T05:23:13;98204.41;;;2.10;100.00
498;BME280;39559;48.630;9.162;2024-02-21T05:25:39;98206.84;;;1.79;100.00
498;BME280;39559;48.630;9.162;2024-02-21T05:30:14;98203.34;;;1.59;100.00
498;BME280;39559;48.630;9.162;2024-02-21T05:32:39;98200.78;;;1.56;100.00
498;BME280;39559;48.630;9.162;2024-02-21T05:35:05;98195.53;;;1.34;100.00
498;BME280;39559;48.630;9.162;2024-02-21T05:37:31;98182.69;;;1.23;100.00
498;BME280;39559;48.630;9.162;2024-02-21T05:39:56;98186.91;;;1.20;100.00
498;BME280;39559;48.630;9.162;2024-02-21T05:42:22;98179.31;;;1.26;100.00
498;BME280;39559;48.630;9.162;2024-02-21T05:44:47;98178.50;;;1.33;100.00
498;BME280;39559;48.630;9.162;2024-02-21T05:47:13;98181.09;;;1.48;100.00
498;BME280;39559;48.630;9.162;2024-02-21T05:49:40;98171.78;;;1.57;100.00
498;BME280;39559;48.630;9.162;2024-02-21T05:54:14;98168.06;;;1.05;100.00
498;BME280;39559;48.630;9.162;2024-02-21T05:56:39;98168.22;;;1.24;100.00
498;BME280;39559;48.630;9.162;2024-02-21T05:59:05;98170.03;;;1.49;100.00
498;BME280;39559;48.630;9.162;2024-02-21T06:01:30;98167.47;;;1.49;100.00
498;BME280;39559;48.630;9.162;2024-02-21T06:03:56;98155.44;;;1.30;100.00
498;BME280;39559;48.630;9.162;2024-02-21T06:06:21;98159.75;;;1.45;100.00
498;BME280;39559;48.630;9.162;2024-02-21T06:08:47;98146.91;;;1.31;100.00
498;BME280;39559;48.630;9.162;2024-02-21T06:11:12;98157.19;;;1.40;100.00
498;BME280;39559;48.630;9.162;2024-02-21T06:13:40;98154.66;;;1.46;100.00
498;BME280;39559;48.630;9.162;2024-02-21T06:18:14;98158.91;;;1.41;100.00
498;BME280;39559;48.630;9.162;2024-02-21T06:20:39;98156.22;;;1.15;100.00
498;BME280;39559;48.630;9.162;2024-02-21T06:23:06;98166.16;;;0.72;100.00
498;BME280;39559;48.630;9.162;2024-02-21T06:25:32;98175.41;;;0.57;100.00
498;BME280;39559;48.630;9.162;2024-02-21T06:27:57;98168.66;;;0.64;100.00
498;BME280;39559;48.630;9.162;2024-02-21T06:30:23;98166.19;;;0.78;100.00
498;BME280;39559;48.630;9.162;2024-02-21T06:32:48;98160.38;;;0.99;100.00
498;BME280;39559;48.630;9.162;2024-02-21T06:35:14;98160.47;;;1.16;100.00
498;BME280;39559;48.630;9.162;2024-02-21T06:37:40;98170.75;;;1.21;100.00
498;BME280;39559;48.630;9.162;2024-02-21T06:42:14;98165.38;;;0.85;100.00
498;BME280;39559;48.630;9.162;2024-02-21T06:44:40;98173.81;;;0.70;100.00
498;BME280;39559;48.630;9.162;2024-02-21T06:47:06;98181.53;;;0.80;100.00
498;BME280;39559;48.630;9.162;2024-02-21T06:49:32;98176.31;;;0.67;100.00
498;BME280;39559;48.630;9.162;2024-02-21T06:51:58;98180.56;;;0.64;100.00
498;BME280;39559;48.630;9.162;2024-02-21T06:54:23;98187.53;;;0.80;100.00
498;BME280;39559;48.630;9.162;2024-02-21T06:56:49;98181.63;;;0.92;100.00
498;BME280;39559;48.630;9.162;2024-02-21T06:59:15;98178.19;;;0.87;100.00
498;BME280;39559;48.630;9.162;2024-02-21T07:01:45;98180.84;;;1.05;100.00
498;BME280;39559;48.630;9.162;2024-02-21T07:06:14;98169.88;;;1.19;100.00
498;BME280;39559;48.630;9.162;2024-02-21T07:08:40;98181.91;;;1.38;100.00
498;BME280;39559;48.630;9.162;2024-02-21T07:11:06;98174.28;;;1.44;100.00
498;BME280;39559;48.630;9.162;2024-02-21T07:13:32;98158.09;;;1.51;100.00
498;BME280;39559;48.630;9.162;2024-02-21T07:15:58;98161.50;;;1.46;100.00
498;BME280;39559;48.630;9.162;2024-02-21T07:18:24;98147.06;;;1.65;100.00
498;BME280;39559;48.630;9.162;2024-02-21T07:20:51;98146.25;;;1.77;100.00
498;BME280;39559;48.630;9.162;2024-02-21T07:23:18;98153.09;;;1.87;100.00
498;BME280;39559;48.630;9.162;2024-02-21T07:25:44;98138.59;;;1.94;100.00
498;BME280;39559;48.630;9.162;2024-02-21T07:30:15;98136.00;;;1.75;100.00
498;BME280;39559;48.630;9.162;2024-02-21T07:32:40;98144.56;;;1.92;100.00
498;BME280;39559;48.630;9.162;2024-02-21T07:35:06;98138.66;;;2.07;100.00
498;BME280;39559;48.630;9.162;2024-02-21T07:37:36;98134.38;;;2.23;100.00
498;BME280;39559;48.630;9.162;2024-02-21T07:40:05;98139.50;;;2.33;100.00
498;BME280;39559;48.630;9.162;2024-02-21T07:42:31;98138.69;;;2.47;100.00
498;BME280;39559;48.630;9.162;2024-02-21T07:44:56;98122.44;;;2.47;100.00
498;BME280;39559;48.630;9.162;2024-02-21T07:47:22;98120.72;;;2.54;100.00
498;BME280;39559;48.630;9.162;2024-02-21T07:49:48;98111.31;;;2.34;100.00
498;BME280;39559;48.630;9.162;2024-02-21T07:54:15;98102.75;;;2.80;100.00
498;BME280;39559;48.630;9.162;2024-02-21T07:56:41;98101.94;;;2.53;100.00
498;BME280;39559;48.630;9.162;2024-02-21T07:59:06;98098.50;;;2.59;100.00
498;BME280;39559;48.630;9.162;2024-02-21T08:01:33;98100.19;;;2.77;100.00
498;BME280;39559;48.630;9.162;2024-02-21T08:03:58;98086.31;;;3.41;100.00
498;BME280;39559;48.630;9.162;2024-02-21T08:06:24;98068.06;;;3.89;100.00
498;BME280;39559;48.630;9.162;2024-02-21T08:08:50;98054.16;;;4.17;100.00
498;BME280;39559;48.630;9.162;2024-02-21T08:11:15;98040.22;;;4.46;100.00
498;BME280;39559;48.630;9.162;2024-02-21T08:13:41;98036.66;;;4.58;100.00
498;BME280;39559;48.630;9.162;2024-02-21T08:18:15;98028.72;;;4.81;100.00
498;BME280;39559;48.630;9.162;2024-02-21T08:20:41;98033.66;;;5.01;100.00
498;BME280;39559;48.630;9.162;2024-02-21T08:23:06;98024.88;;;5.16;100.00
498;BME280;39559;48.630;9.162;2024-02-21T08:25:32;98012.94;;;5.12;100.00
498;BME280;39559;48.630;9.162;2024-02-21T08:27:59;98005.94;;;5.20;100.00
498;BME280;39559;48.630;9.162;2024-02-21T08:30:25;98013.28;;;5.49;100.00
498;BME280;39559;48.630;9.162;2024-02-21T08:32:50;98011.13;;;5.82;100.00
498;BME280;39559;48.630;9.162;2024-02-21T08:35:16;98006.38;;;6.12;100.00
498;BME280;39559;48.630;9.162;2024-02-21T08:37:44;98006.22;;;6.21;100.00
498;BME280;39559;48.630;9.162;2024-02-21T08:42:16;98001.81;;;6.28;100.00
498;BME280;39559;48.630;9.162;2024-02-21T08:44:42;97993.97;;;6.34;100.00
498;BME280;39559;48.630;9.162;2024-02-21T08:47:08;97993.25;;;6.74;100.00
498;BME280;39559;48.630;9.162;2024-02-21T08:49:35;97983.50;;;6.88;100.00
498;BME280;39559;48.630;9.162;2024-02-21T08:52:01;97989.66;;;6.81;100.00
498;BME280;39559;48.630;9.162;2024-02-21T08:54:28;97986.38;;;6.73;100.00
498;BME280;39559;48.630;9.162;2024-02-21T08:56:54;97991.41;;;6.81;100.00
498;BME280;39559;48.630;9.162;2024-02-21T08:59:20;97984.63;;;6.75;100.00
498;BME280;39559;48.630;9.162;2024-02-21T09:01:46;97984.25;;;6.94;100.00
498;BME280;39559;48.630;9.162;2024-02-21T09:06:16;97978.38;;;6.85;100.00
498;BME280;39559;48.630;9.162;2024-02-21T09:08:42;97975.50;;;7.02;100.00
498;BME280;39559;48.630;9.162;2024-02-21T09:11:08;97969.81;;;6.85;100.00
498;BME280;39559;48.630;9.162;2024-02-21T09:13:34;97958.50;;;6.90;100.00
498;BME280;39559;48.630;9.162;2024-02-21T09:16:00;97951.81;;;6.80;100.00
498;BME280;39559;48.630;9.162;2024-02-21T09:18:25;97949.16;;;6.85;100.00
498;BME280;39559;48.630;9.162;2024-02-21T09:20:51;97949.88;;;6.91;100.00
498;BME280;39559;48.630;9.162;2024-02-21T09:23:16;97947.16;;;6.98;100.00
498;BME280;39559;48.630;9.162;2024-02-21T09:25:42;97950.06;;;7.24;100.00
498;BME280;39559;48.630;9.162;2024-02-21T09:30:16;97938.47;;;7.42;100.00
498;BME280;39559;48.630;9.162;2024-02-21T09:32:42;97935.56;;;7.55;100.00
498;BME280;39559;48.630;9.162;2024-02-21T09:35:07;97929.28;;;7.66;100.00
498;BME280;39559;48.630;9.162;2024-02-21T09:37:33;97930.28;;;7.61;100.00
498;BME280;39559;48.630;9.162;2024-02-21T09:39:59;97925.88;;;7.66;100.00
498;BME280;39559;48.630;9.162;2024-02-21T09:45:01;97931.34;;;8.22;100.00
498;BME280;39559;48.630;9.162;2024-02-21T09:50:26;97925.94;;;8.64;100.00
498;BME280;39559;48.630;9.162;2024-02-21T09:54:17;97913.72;;;8.99;100.00
498;BME280;39559;48.630;9.162;2024-02-21T09:56:47;97917.69;;;8.81;100.00
498;BME280;39559;48.630;9.162;2024-02-21T09:59:15;97912.09;;;8.65;100.00
498;BME280;39559;48.630;9.162;2024-02-21T10:01:42;97915.75;;;8.90;100.00
498;BME280;39559;48.630;9.162;2024-02-21T10:04:09;97912.31;;;8.88;100.00
498;BME280;39559;48.630;9.162;2024-02-21T10:06:35;97907.69;;;8.69;100.00
498;BME280;39559;48.630;9.162;2024-02-21T10:09:03;97906.59;;;8.47;100.00
498;BME280;39559;48.630;9.162;2024-02-21T10:11:29;97894.13;;;8.61;100.00
498;BME280;39559;48.630;9.162;2024-02-21T10:14:05;97894.31;;;8.84;100.00
498;BME280;39559;48.630;9.162;2024-02-21T10:18:17;97892.84;;;9.34;100.00
498;BME280;39559;48.630;9.162;2024-02-21T10:20:43;97878.44;;;9.52;100.00
498;BME280;39559;48.630;9.162;2024-02-21T10:23:09;97879.16;;;9.29;100.00
498;BME280;39559;48.630;9.162;2024-02-21T10:25:35;97872.13;;;9.32;100.00
498;BME280;39559;48.630;9.162;2024-02-21T10:28:04;97871.25;;;9.33;100.00
498;BME280;39559;48.630;9.162;2024-02-21T10:30:30;97855.09;;;9.25;100.00
498;BME280;39559;48.630;9.162;2024-02-21T10:32:56;97859.00;;;9.65;100.00
498;BME280;39559;48.630;9.162;2024-02-21T10:35:32;97850.16;;;9.71;100.00
498;BME280;39559;48.630;9.162;2024-02-21T10:37:59;97851.38;;;9.86;100.00
498;BME280;39559;48.630;9.162;2024-02-21T10:42:18;97847.50;;;10.24;100.00
498;BME280;39559;48.630;9.162;2024-02-21T10:44:48;97842.13;;;10.54;100.00
498;BME280;39559;48.630;9.162;2024-02-21T10:47:17;97843.34;;;10.44;96.08
498;BME280;39559;48.630;9.162;2024-02-21T10:49:49;97837.75;;;10.29;100.00
498;BME280;39559;48.630;9.162;2024-02-21T10:55:26;97831.78;;;10.98;97.97
498;BME280;39559;48.630;9.162;2024-02-21T10:58:00;97819.63;;;10.53;91.21
498;BME280;39559;48.630;9.162;2024-02-21T11:00:26;97820.31;;;10.34;100.00
498;BME280;39559;48.630;9.162;2024-02-21T11:02:57;97813.25;;;10.62;97.16
498;BME280;39559;48.630;9.162;2024-02-21T11:06:17;97800.63;;;10.04;89.75
498;BME280;39559;48.630;9.162;2024-02-21T11:08:43;97801.19;;;10.12;87.86
498;BME280;39559;48.630;9.162;2024-02-21T11:11:12;97801.34;;;10.32;98.37
498;BME280;39559;48.630;9.162;2024-02-21T11:13:42;97783.94;;;10.11;92.80
498;BME280;39559;48.630;9.162;2024-02-21T11:16:09;97787.09;;;10.44;100.00
498;BME280;39559;48.630;9.162;2024-02-21T11:18:37;97786.44;;;10.61;94.80
498;BME280;39559;48.630;9.162;2024-02-21T11:21:02;97781.44;;;10.79;91.27
498;BME280;39559;48.630;9.162;2024-02-21T11:23:31;97775.25;;;10.83;87.93
498;BME280;39559;48.630;9.162;2024-02-21T11:26:19;97768.84;;;10.91;91.90
498;BME280;39559;48.630;9.162;2024-02-21T11:30:16;97753.53;;;10.84;87.45
498;BME280;39559;48.630;9.162;2024-02-21T11:32:42;97749.31;;;10.81;83.54
498;BME280;39559;48.630;9.162;2024-02-21T11:35:08;97746.28;;;10.92;83.74
498;BME280;39559;48.630;9.162;2024-02-21T11:37:45;97728.91;;;11.14;78.79
498;BME280;39559;48.630;9.162;2024-02-21T11:40:12;97732.22;;;11.18;83.91
498;BME280;39559;48.630;9.162;2024-02-21T11:42:38;97718.56;;;11.13;73.81
498;BME280;39559;48.630;9.162;2024-02-21T11:45:03;97714.41;;;10.88;73.92
498;BME280;39559;48.630;9.162;2024-02-21T11:47:29;97718.69;;;11.32;78.46
498;BME280;39559;48.630;9.162;2024-02-21T11:49:55;97711.31;;;11.42;75.10
498;BME280;39559;48.630;9.162;2024-02-21T11:54:15;97712.63;;;11.31;77.46
498;BME280;39559;48.630;9.162;2024-02-21T11:56:42;97698.31;;;11.42;77.12
498;BME280;39559;48.630;9.162;2024-02-21T11:59:08;97688.81;;;11.20;77.44
498;BME280;39559;48.630;9.162;2024-02-21T12:01:34;97687.84;;;10.80;79.31
498;BME280;39559;48.630;9.162;2024-02-21T12:03:59;97692.31;;;10.99;78.93
498;BME280;39559;48.630;9.162;2024-02-21T12:06:25;97682.59;;;11.24;80.14
498;BME280;39559;48.630;9.162;2024-02-21T12:08:50;97677.28;;;11.48;79.18
498;BME280;39559;48.630;9.162;2024-02-21T12:11:19;97673.31;;;11.39;81.34
498;BME280;39559;48.630;9.162;2024-02-21T12:14:08;97670.66;;;11.41;78.11
498;BME280;39559;48.630;9.162;2024-02-21T12:18:15;97665.44;;;11.80;75.09
498;BME280;39559;48.630;9.162;2024-02-21T12:20:41;97652.75;;;12.12;77.57
498;BME280;39559;48.630;9.162;2024-02-21T12:23:10;97648.94;;;12.00;72.92
498;BME280;39559;48.630;9.162;2024-02-21T12:25:36;97647.06;;;12.04;75.75
498;BME280;39559;48.630;9.162;2024-02-21T12:28:02;97633.50;;;12.53;74.40
498;BME280;39559;48.630;9.162;2024-02-21T12:30:29;97635.28;;;12.33;76.82
498;BME280;39559;48.630;9.162;2024-02-21T12:32:56;97631.81;;;12.52;77.82
498;BME280;39559;48.630;9.162;2024-02-21T12:35:24;97620.53;;;12.51;79.57
498;BME280;39559;48.630;9.162;2024-02-21T12:37:50;97618.47;;;11.83;76.33
498;BME280;39559;48.630;9.162;2024-02-21T12:42:13;97619.06;;;12.45;77.26
498;BME280;39559;48.630;9.162;2024-02-21T12:44:39;97607.50;;;12.51;78.50
498;BME280;39559;48.630;9.162;2024-02-21T12:47:04;97598.78;;;12.52;72.48
498;BME280;39559;48.630;9.162;2024-02-21T12:49:30;97597.41;;;12.62;72.98
498;BME280;39559;48.630;9.162;2024-02-21T12:51:55;97589.75;;;12.77;73.57
498;BME280;39559;48.630;9.162;2024-02-21T12:54:21;97586.25;;;12.78;71.44
498;BME280;39559;48.630;9.162;2024-02-21T12:56:47;97582.84;;;12.58;75.52
498;BME280;39559;48.630;9.162;2024-02-21T12:59:13;97578.50;;;12.22;67.09
498;BME280;39559;48.630;9.162;2024-02-21T13:01:39;97564.16;;;12.50;71.11
498;BME280;39559;48.630;9.162;2024-02-21T13:06:14;97564.72;;;12.20;69.95
498;BME280;39559;48.630;9.162;2024-02-21T13:08:40;97552.94;;;12.31;68.82
498;BME280;39559;48.630;9.162;2024-02-21T13:11:06;97548.13;;;12.23;67.25
498;BME280;39559;48.630;9.162;2024-02-21T13:13:32;97544.00;;;12.00;69.34
498;BME280;39559;48.630;9.162;2024-02-21T13:15:59;97533.59;;;12.00;67.64
498;BME280;39559;48.630;9.162;2024-02-21T13:18:24;97525.91;;;12.16;67.55
498;BME280;39559;48.630;9.162;2024-02-21T13:21:04;97520.56;;;12.36;69.83
498;BME280;39559;48.630;9.162;2024-02-21T13:23:29;97518.34;;;12.28;70.06
498;BME280;39559;48.630;9.162;2024-02-21T13:25:55;97513.81;;;12.49;70.72
498;BME280;39559;48.630;9.162;2024-02-21T13:30:10;97500.63;;;12.53;66.59
498;BME280;39559;48.630;9.162;2024-02-21T13:32:36;97498.66;;;12.58;74.96
498;BME280;39559;48.630;9.162;2024-02-21T13:35:03;97496.41;;;12.85;73.93
498;BME280;39559;48.630;9.162;2024-02-21T13:37:29;97485.16;;;13.00;72.12
498;BME280;39559;48.630;9.162;2024-02-21T13:39:54;97480.28;;;12.94;70.43
498;BME280;39559;48.630;9.162;2024-02-21T13:42:20;97470.88;;;13.07;70.96
498;BME280;39559;48.630;9.162;2024-02-21T13:44:46;97475.59;;;13.01;68.89
498;BME280;39559;48.630;9.162;2024-02-21T13:47:15;97464.94;;;12.72;72.40
498;BME280;39559;48.630;9.162;2024-02-21T13:49:41;97455.00;;;12.28;67.48
498;BME280;39559;48.630;9.162;2024-02-21T13:54:11;97455.66;;;12.66;71.58
498;BME280;39559;48.630;9.162;2024-02-21T13:56:39;97455.38;;;12.38;71.69
498;BME280;39559;48.630;9.162;2024-02-21T13:59:05;97463.97;;;12.57;73.51
498;BME280;39559;48.630;9.162;2024-02-21T14:01:34;97459.44;;;12.43;74.41
498;BME280;39559;48.630;9.162;2024-02-21T14:04:01;97455.53;;;12.35;77.07
498;BME280;39559;48.630;9.162;2024-02-21T14:06:29;97448.09;;;12.27;75.18
498;BME280;39559;48.630;9.162;2024-02-21T14:08:55;97450.59;;;12.46;75.63
498;BME280;39559;48.630;9.162;2024-02-21T14:11:22;97436.13;;;12.40;78.88
498;BME280;39559;48.630;9.162;2024-02-21T14:13:48;97434.25;;;12.26;79.27
498;BME280;39559;48.630;9.162;2024-02-21T14:18:07;97423.59;;;12.31;77.45
498;BME280;39559;48.630;9.162;2024-02-21T14:20:35;97424.19;;;12.36;78.28
498;BME280;39559;48.630;9.162;2024-02-21T14:23:01;97427.75;;;12.35;78.61
498;BME280;39559;48.630;9.162;2024-02-21T14:25:27;97418.44;;;12.29;80.88
498;BME280;39559;48.630;9.162;2024-02-21T14:27:53;97416.16;;;12.23;83.64
498;BME280;39559;48.630;9.162;2024-02-21T14:30:18;97421.31;;;12.25;83.60
498;BME280;39559;48.630;9.162;2024-02-21T14:32:44;97416.84;;;12.27;82.11
498;BME280;39559;48.630;9.162;2024-02-21T14:35:11;97416.50;;;12.17;82.52
498;BME280;39559;48.630;9.162;2024-02-21T14:37:36;97415.63;;;12.17;84.07